Time;durP1;ratioP1;P1;durP2;ratioP2;P2;SDS_P1;SDS_P2;PMS_P1;PMS_P2;Temp;Humidity;BMP_temperature;BMP_pressure;BME280_temperature;BME280_humidity;BME280_pressure;Samples;Min_cycle;Max_cycle;Signal;HPM_P1;HPM_P2
2020/12/16 00:00:27;;;;;;;66.72;36.25;;;;;;;1.89;100.00;95802.34;1026476;28;20026;-72
2020/12/16 00:00:57;;;;;;;75.00;39.17;;;;;;;1.88;100.00;95811.91;1026292;28;20023;-72
2020/12/16 00:01:28;;;;;;;70.00;38.00;;;;;;;1.85;100.00;95807.13;1025515;28;20023;-72
2020/12/16 00:01:58;;;;;;;75.30;38.33;;;;;;;1.84;100.00;95809.91;1026505;28;20027;-72
2020/12/16 00:02:29;;;;;;;68.43;36.33;;;;;;;1.84;100.00;95808.13;1045619;28;20023;-72
2020/12/16 00:02:59;;;;;;;64.95;35.67;;;;;;;1.83;100.00;95813.50;1034546;28;20075;-71
2020/12/16 00:03:30;;;;;;;67.57;36.65;;;;;;;1.83;100.00;95808.34;1030258;28;20022;-71
2020/12/16 00:04:00;;;;;;;68.57;35.80;;;;;;;1.84;100.00;95815.09;1030490;28;20073;-73
2020/12/16 00:04:30;;;;;;;70.72;37.30;;;;;;;1.73;100.00;95798.44;1030435;28;20016;-70
2020/12/16 00:05:01;;;;;;;72.45;36.30;;;;;;;1.82;100.00;95814.53;1022488;28;20028;-70
2020/12/16 00:05:31;;;;;;;69.55;35.63;;;;;;;1.82;100.00;95812.72;1030196;28;20027;-73
2020/12/16 00:06:02;;;;;;;68.70;35.50;;;;;;;1.81;100.00;95815.50;1030415;28;20026;-71
2020/12/16 00:06:33;;;;;;;72.13;37.97;;;;;;;1.80;100.00;95808.75;1030564;28;20114;-72
2020/12/16 00:07:04;;;;;;;74.50;37.70;;;;;;;1.70;100.00;95801.41;1034467;28;20642;-73
2020/12/16 00:07:34;;;;;;;72.88;39.13;;;;;;;1.77;100.00;95803.97;1030489;28;20026;-71
2020/12/16 00:08:05;;;;;;;68.35;37.90;;;;;;;1.79;100.00;95812.34;1030485;28;20533;-71
2020/12/16 00:08:35;;;;;;;77.00;38.97;;;;;;;1.77;100.00;95814.31;1026413;28;20064;-71
2020/12/16 00:09:05;;;;;;;77.13;40.50;;;;;;;1.78;100.00;95808.97;1022625;28;20057;-70
2020/12/16 00:09:36;;;;;;;72.57;39.92;;;;;;;1.77;100.00;95814.31;1026173;28;20031;-72
2020/12/16 00:10:10;;;;;;;71.10;39.55;;;;;;;1.65;100.00;95796.09;1026514;28;20066;-72
2020/12/16 00:10:41;;;;;;;70.94;37.86;;;;;;;1.77;100.00;95809.16;1023042;28;20070;-73
2020/12/16 00:11:11;;;;;;;78.70;41.65;;;;;;;1.75;100.00;95806.78;1026827;28;20069;-72
2020/12/16 00:11:42;;;;;;;74.97;39.60;;;;;;;1.54;100.00;95779.41;1025490;28;20088;-70
2020/12/16 00:12:15;;;;;;;76.82;39.63;;;;;;;1.74;100.00;95805.19;1022589;28;20023;-72
2020/12/16 00:12:45;;;;;;;75.42;38.92;;;;;;;1.75;100.00;95808.59;1025268;28;20057;-71
2020/12/16 00:13:16;;;;;;;80.63;40.03;;;;;;;1.74;100.00;95809.56;1027184;28;20482;-73
2020/12/16 00:13:46;;;;;;;77.55;40.63;;;;;;;1.64;100.00;95792.72;1033790;28;20061;-71
2020/12/16 00:14:16;;;;;;;75.55;40.63;;;;;;;1.72;100.00;95806.41;1030380;28;20021;-71
2020/12/16 00:14:47;;;;;;;73.55;39.35;;;;;;;1.73;100.00;95813.16;1030466;28;20054;-70
2020/12/16 00:15:17;;;;;;;84.65;41.83;;;;;;;1.70;100.00;95804.00;1030078;28;20023;-69
2020/12/16 00:15:48;;;;;;;81.72;41.45;;;;;;;1.73;100.00;95805.41;1042779;28;20490;-71
2020/12/16 00:16:19;;;;;;;76.57;39.05;;;;;;;1.63;100.00;95792.91;1042733;28;20005;-72
2020/12/16 00:16:49;;;;;;;81.88;42.00;;;;;;;1.74;100.00;95810.34;1022470;28;20073;-70
2020/12/16 00:17:19;;;;;;;73.60;40.53;;;;;;;1.73;100.00;95813.16;1026305;28;20027;-70
2020/12/16 00:17:50;;;;;;;71.22;40.65;;;;;;;1.67;100.00;95803.63;1026306;28;20031;-70
2020/12/16 00:18:21;;;;;;;78.28;39.70;;;;;;;1.72;100.00;95814.16;1022097;28;20062;-72
2020/12/16 00:18:51;;;;;;;71.35;39.42;;;;;;;1.73;100.00;95815.75;1020726;28;20028;-70
2020/12/16 00:19:22;;;;;;;75.15;41.22;;;;;;;1.74;100.00;95817.31;1022464;28;20023;-70
2020/12/16 00:19:52;;;;;;;71.70;39.95;;;;;;;1.73;100.00;95818.31;1026380;28;20559;-71
2020/12/16 00:20:23;;;;;;;84.80;42.50;;;;;;;1.64;100.00;95804.81;1033914;28;20025;-70
2020/12/16 00:20:53;;;;;;;84.40;41.10;;;;;;;1.51;100.00;95782.41;1026544;28;20404;-72
2020/12/16 00:21:26;;;;;;;79.90;41.03;;;;;;;1.71;100.00;95821.13;1028437;28;20046;-70
2020/12/16 00:22:00;;;;;;;79.22;41.52;;;;;;;1.59;100.00;95802.84;1042671;28;20031;-69
2020/12/16 00:22:43;;;;;;;75.50;40.18;;;;;;;1.67;100.00;95819.13;1030552;28;20027;-71
2020/12/16 00:23:13;;;;;;;78.04;40.62;;;;;;;1.67;100.00;95819.13;1030072;28;20777;-72
2020/12/16 00:23:44;;;;;;;83.32;40.40;;;;;;;1.67;100.00;95813.97;1022831;28;20039;-70
2020/12/16 00:24:14;;;;;;;79.40;40.20;;;;;;;1.65;100.00;95821.94;1022175;29;20023;-69
2020/12/16 00:24:44;;;;;;;78.55;40.70;;;;;;;1.60;100.00;95809.59;1022558;28;20181;-70
2020/12/16 00:25:15;;;;;;;81.95;40.03;;;;;;;1.65;100.00;95822.72;1034142;28;20026;-69
2020/12/16 00:25:45;;;;;;;82.82;39.92;;;;;;;1.62;100.00;95817.19;1030143;28;20399;-70
2020/12/16 00:26:16;;;;;;;82.03;41.03;;;;;;;1.59;100.00;95820.97;1021968;29;20052;-70
2020/12/16 00:26:46;;;;;;;79.78;40.92;;;;;;;1.62;100.00;95824.94;1022023;28;20015;-72
2020/12/16 00:27:17;;;;;;;81.18;39.75;;;;;;;1.60;100.00;95822.53;1022105;29;20077;-72
2020/12/16 00:27:47;;;;;;;83.47;41.08;;;;;;;1.58;100.00;95824.56;1030397;28;20014;-71
2020/12/16 00:28:18;;;;;;;82.45;41.88;;;;;;;1.47;100.00;95804.47;1025844;28;20045;-69
2020/12/16 00:28:48;;;;;;;83.80;40.90;;;;;;;1.56;100.00;95823.94;1022023;28;20019;-69
2020/12/16 00:29:19;;;;;;;82.65;39.95;;;;;;;1.53;100.00;95826.94;1030139;28;20468;-70
2020/12/16 00:29:49;;;;;;;85.47;40.35;;;;;;;1.54;100.00;95825.97;1030478;28;20030;-71
2020/12/16 00:30:20;;;;;;;91.72;41.38;;;;;;;1.55;100.00;95822.38;1026035;28;20762;-69
2020/12/16 00:30:50;;;;;;;82.38;41.17;;;;;;;1.52;100.00;95827.94;1030627;28;20201;-71
2020/12/16 00:31:20;;;;;;;80.95;41.60;;;;;;;1.53;100.00;95826.94;1034121;28;20013;-72
2020/12/16 00:31:51;;;;;;;79.32;39.17;;;;;;;1.55;100.00;95835.28;1033102;28;20014;-70
2020/12/16 00:32:21;;;;;;;85.10;42.17;;;;;;;1.50;100.00;95823.97;1034057;28;20411;-70
2020/12/16 00:32:52;;;;;;;82.05;40.78;;;;;;;1.52;100.00;95827.94;1026367;28;20027;-70
2020/12/16 00:33:22;;;;;;;75.32;40.50;;;;;;;1.53;100.00;95834.69;1030199;28;20025;-69
2020/12/16 00:33:53;;;;;;;82.10;41.45;;;;;;;1.50;100.00;95826.56;1030333;28;20015;-71
2020/12/16 00:34:23;;;;;;;87.88;42.58;;;;;;;1.51;100.00;95828.94;1022282;28;20527;-71
2020/12/16 00:34:54;;;;;;;83.95;39.33;;;;;;;1.43;100.00;95816.22;1022474;29;20019;-70
2020/12/16 00:35:24;;;;;;;80.72;40.33;;;;;;;1.49;100.00;95822.38;1020112;28;20008;-70
2020/12/16 00:35:55;;;;;;;84.38;39.92;;;;;;;1.49;100.00;95823.19;1023660;28;20051;-70
2020/12/16 00:36:25;;;;;;;92.82;42.75;;;;;;;1.41;100.00;95820.81;1026110;28;20072;-70
2020/12/16 00:36:56;;;;;;;81.65;39.20;;;;;;;1.45;100.00;95829.75;1026469;28;20019;-71
2020/12/16 00:37:26;;;;;;;87.63;41.97;;;;;;;1.45;100.00;95828.97;1020938;28;20539;-71
2020/12/16 00:37:57;;;;;;;91.88;40.83;;;;;;;1.38;100.00;95823.81;1046988;28;20021;-70
2020/12/16 00:38:27;;;;;;;92.65;41.80;;;;;;;1.41;100.00;95828.56;1022423;28;20106;-70
2020/12/16 00:38:58;;;;;;;78.95;39.65;;;;;;;1.40;100.00;95834.72;1026505;28;20350;-69
2020/12/16 00:39:28;;;;;;;72.72;39.95;;;;;;;1.38;100.00;95832.34;1030246;28;20022;-70
2020/12/16 00:39:59;;;;;;;76.20;39.88;;;;;;;1.39;100.00;95828.75;1026382;28;20026;-70
2020/12/16 00:40:29;;;;;;;83.13;40.88;;;;;;;1.36;100.00;95825.78;1034531;28;20026;-71
2020/12/16 00:41:00;;;;;;;79.18;40.13;;;;;;;1.39;100.00;95833.16;1022317;28;20023;-72
2020/12/16 00:41:31;;;;;;;82.65;40.35;;;;;;;1.35;100.00;95826.78;1021886;28;20532;-72
2020/12/16 00:42:01;;;;;;;79.94;40.30;;;;;;;1.38;100.00;95831.56;1022198;29;20097;-73
2020/12/16 00:42:32;;;;;;;84.07;41.10;;;;;;;1.29;100.00;95822.44;1022951;28;20082;-70
2020/12/16 00:43:03;;;;;;;92.48;41.64;;;;;;;1.35;100.00;95830.16;1026590;28;20446;-71
2020/12/16 00:43:33;;;;;;;84.63;42.22;;;;;;;1.35;100.00;95829.38;1030335;28;20011;-74
2020/12/16 00:44:04;;;;;;;94.82;41.40;;;;;;;1.32;100.00;95833.16;1034342;28;20244;-70
2020/12/16 00:44:34;;;;;;;77.07;37.80;;;;;;;1.29;100.00;95823.22;1030579;28;20550;-71
2020/12/16 00:45:05;;;;;;;90.35;42.78;;;;;;;1.31;100.00;95823.03;1030118;28;20015;-69
2020/12/16 00:45:36;;;;;;;91.04;42.36;;;;;;;1.29;100.00;95832.78;1026306;28;20038;-69
2020/12/16 00:46:06;;;;;;;92.65;41.17;;;;;;;1.28;100.00;95834.56;1022740;28;20027;-72
2020/12/16 00:46:37;;;;;;;79.28;38.60;;;;;;;1.26;100.00;95828.78;1030855;28;20026;-71
2020/12/16 00:47:07;;;;;;;93.05;41.50;;;;;;;1.24;100.00;95828.22;1034249;28;20018;-71
2020/12/16 00:47:38;;;;;;;87.60;40.45;;;;;;;1.17;100.00;95824.81;1034259;28;20026;-70
2020/12/16 00:48:08;;;;;;;93.70;41.85;;;;;;;1.20;100.00;95827.00;1028774;28;20078;-72
2020/12/16 00:48:39;;;;;;;88.50;41.30;;;;;;;1.17;100.00;95825.63;1033870;28;20063;-70
2020/12/16 00:49:09;;;;;;;87.50;41.38;;;;;;;1.14;100.00;95820.06;1038442;28;20025;-70
2020/12/16 00:49:41;;;;;;;91.63;45.15;;;;;;;1.21;100.00;95825.22;1034544;28;20904;-71
2020/12/16 00:50:11;;;;;;;95.86;42.34;;;;;;;1.20;100.00;95824.41;1038469;28;20073;-70
2020/12/16 00:50:42;;;;;;;100.38;43.38;;;;;;;1.22;100.00;95825.03;1030285;28;20109;-70
2020/12/16 00:51:13;;;;;;;96.63;44.20;;;;;;;1.21;100.00;95820.03;1026312;28;20475;-69
2020/12/16 00:51:43;;;;;;;96.96;42.74;;;;;;;1.18;100.00;95800.59;1021584;29;20027;-70
2020/12/16 00:52:14;;;;;;;92.72;41.88;;;;;;;1.32;100.00;95822.03;1022639;28;20023;-69
2020/12/16 00:52:44;;;;;;;93.45;43.03;;;;;;;1.35;100.00;95819.03;1026367;28;20045;-71
2020/12/16 00:53:15;;;;;;;87.50;42.47;;;;;;;1.29;100.00;95812.09;1026456;28;20496;-69
2020/12/16 00:53:45;;;;;;;97.65;44.47;;;;;;;1.26;100.00;95808.13;1026059;28;20522;-71
2020/12/16 00:54:16;;;;;;;95.47;44.53;;;;;;;1.25;100.00;95816.09;1022556;28;20149;-73
2020/12/16 00:54:49;;;;;;;80.97;39.58;;;;;;;1.31;100.00;95825.63;1026599;28;20019;-72
2020/12/16 00:55:19;;;;;;;89.24;42.84;;;;;;;1.25;100.00;95816.88;1026362;28;20172;-72
2020/12/16 00:55:50;;;;;;;81.38;39.90;;;;;;;1.21;100.00;95817.47;1026436;28;20019;-70
2020/12/16 00:56:20;;;;;;;72.78;37.85;;;;;;;1.20;100.00;95815.88;1030369;28;20461;-71
2020/12/16 00:56:51;;;;;;;84.25;38.80;;;;;;;1.26;100.00;95822.84;1030507;28;20081;-71
2020/12/16 00:57:21;;;;;;;87.55;41.53;;;;;;;1.24;100.00;95829.97;1029938;28;20022;-71
2020/12/16 00:57:53;;;;;;;98.55;42.50;;;;;;;1.20;100.00;95829.59;1030748;28;20030;-72
2020/12/16 00:58:24;;;;;;;90.88;39.96;;;;;;;1.17;100.00;95841.16;1034898;28;20017;-73
2020/12/16 00:58:54;;;;;;;94.50;41.58;;;;;;;1.14;100.00;95826.03;1042579;28;20784;-71
2020/12/16 00:59:24;;;;;;;108.72;44.45;;;;;;;1.17;100.00;95835.16;1034224;28;20771;-70
2020/12/16 00:59:55;;;;;;;93.38;41.70;;;;;;;1.14;100.00;95841.53;1026557;28;20022;-69
2020/12/16 01:00:25;;;;;;;103.85;43.08;;;;;;;1.14;100.00;95840.72;1026268;28;20027;-71
2020/12/16 01:00:56;;;;;;;96.75;42.67;;;;;;;1.13;100.00;95837.34;1026669;28;20027;-70
2020/12/16 01:01:29;;;;;;;91.00;41.85;;;;;;;1.12;100.00;95840.94;1034388;28;20037;-69
2020/12/16 01:02:02;;;;;;;102.90;44.64;;;;;;;1.12;100.00;95842.72;1051625;28;20477;-71
2020/12/16 01:02:33;;;;;;;108.02;44.42;;;;;;;1.10;100.00;95845.50;1051541;28;20070;-72
2020/12/16 01:03:03;;;;;;;115.13;45.77;;;;;;;1.11;100.00;95841.94;1051620;28;20069;-70
2020/12/16 01:03:34;;;;;;;104.35;44.58;;;;;;;1.06;100.00;95828.81;1026437;28;20755;-70
2020/12/16 01:04:04;;;;;;;96.65;43.97;;;;;;;1.14;100.00;95844.13;1022092;28;20140;-69
2020/12/16 01:04:35;;;;;;;102.00;45.15;;;;;;;1.08;100.00;95828.63;1022304;29;20027;-69
2020/12/16 01:05:05;;;;;;;104.13;45.53;;;;;;;1.11;100.00;95831.59;1022511;28;20460;-73
2020/12/16 01:05:35;;;;;;;106.07;45.58;;;;;;;1.09;100.00;95828.41;1025714;28;20042;-72
2020/12/16 01:06:06;;;;;;;89.47;41.47;;;;;;;1.16;100.00;95841.31;1030393;28;20034;-71
2020/12/16 01:06:37;;;;;;;102.20;45.30;;;;;;;1.16;100.00;95844.69;1030220;28;20026;-69
2020/12/16 01:07:08;;;;;;;90.97;41.45;;;;;;;1.17;100.00;95840.31;1030999;28;20037;-72
2020/12/16 01:07:39;;;;;;;106.74;45.64;;;;;;;1.11;100.00;95830.81;1030266;28;20030;-71
2020/12/16 01:08:09;;;;;;;92.82;43.97;;;;;;;1.09;100.00;95825.84;1030361;28;20033;-71
2020/12/16 01:08:40;;;;;;;100.70;43.78;;;;;;;1.17;100.00;95841.16;1030667;28;20569;-71
2020/12/16 01:09:10;;;;;;;106.43;45.72;;;;;;;1.17;100.00;95837.75;1030150;28;20027;-71
2020/12/16 01:09:41;;;;;;;105.15;45.78;;;;;;;1.16;100.00;95833.56;1030187;28;20023;-70
2020/12/16 01:10:12;;;;;;;95.45;44.85;;;;;;;1.18;100.00;95841.94;1030771;28;20022;-70
2020/12/16 01:10:43;;;;;;;111.32;45.58;;;;;;;1.18;100.00;95845.31;1026159;28;20016;-70
2020/12/16 01:11:13;;;;;;;109.28;44.28;;;;;;;1.09;100.00;95832.78;1027042;28;20026;-71
2020/12/16 01:11:43;;;;;;;104.07;45.10;;;;;;;1.19;100.00;95843.50;1025809;28;20058;-70
2020/12/16 01:12:14;;;;;;;108.35;45.33;;;;;;;0.95;100.00;95813.94;1026526;28;20014;-70
2020/12/16 01:12:46;;;;;;;110.95;46.88;;;;;;;1.05;100.00;95821.28;1026506;28;20015;-70
2020/12/16 01:13:16;;;;;;;96.38;43.96;;;;;;;1.18;100.00;95842.72;1030603;28;20050;-73
2020/12/16 01:13:47;;;;;;;101.88;45.42;;;;;;;1.13;100.00;95839.13;1030405;28;20076;-70
2020/12/16 01:14:17;;;;;;;109.05;45.92;;;;;;;1.09;100.00;95832.78;1034719;28;20033;-72
2020/12/16 01:14:48;;;;;;;108.38;46.10;;;;;;;1.20;100.00;95841.72;1034576;28;20042;-71
2020/12/16 01:15:19;;;;;;;107.90;45.40;;;;;;;1.21;100.00;95840.72;1034561;28;20010;-71
2020/12/16 01:15:50;;;;;;;101.44;44.40;;;;;;;1.21;100.00;95846.72;1038155;28;20013;-71
2020/12/16 01:16:20;;;;;;;105.70;44.83;;;;;;;1.21;100.00;95845.88;1038578;28;20013;-71
2020/12/16 01:16:51;;;;;;;106.03;45.90;;;;;;;1.17;100.00;95840.31;1039000;28;20068;-72
2020/12/16 01:17:21;;;;;;;101.72;45.38;;;;;;;1.13;100.00;95834.75;1038121;28;20025;-68
2020/12/16 01:17:52;;;;;;;106.53;47.42;;;;;;;1.19;100.00;95843.50;1034292;28;20433;-70
2020/12/16 01:18:22;;;;;;;111.70;46.30;;;;;;;1.15;100.00;95842.34;1047101;28;20020;-69
2020/12/16 01:18:53;;;;;;;103.43;43.85;;;;;;;1.16;100.00;95844.69;1046759;28;20058;-70
2020/12/16 01:19:23;;;;;;;94.72;43.08;;;;;;;1.15;100.00;95844.91;1026602;28;20023;-69
2020/12/16 01:19:54;;;;;;;114.50;46.15;;;;;;;1.15;100.00;95847.50;1034408;28;20394;-70
2020/12/16 01:20:24;;;;;;;114.07;46.53;;;;;;;1.16;100.00;95844.69;1042266;28;20016;-70
2020/12/16 01:20:55;;;;;;;107.38;44.70;;;;;;;1.08;100.00;95839.75;1038326;28;20022;-72
2020/12/16 01:21:25;;;;;;;92.22;43.85;;;;;;;1.17;100.00;95850.66;1033562;28;20036;-69
2020/12/16 01:21:56;;;;;;;90.93;40.90;;;;;;;1.17;100.00;95848.91;1034253;28;20538;-72
2020/12/16 01:22:26;;;;;;;99.47;43.42;;;;;;;1.09;100.00;95838.75;1030233;28;20068;-72
2020/12/16 01:22:56;;;;;;;89.18;41.78;;;;;;;1.15;100.00;95845.72;1026133;28;20496;-70
2020/12/16 01:23:27;;;;;;;89.70;42.65;;;;;;;1.17;100.00;95855.81;1030510;28;20014;-71
2020/12/16 01:23:57;;;;;;;93.88;42.80;;;;;;;1.16;100.00;95849.88;1030117;28;20100;-73
2020/12/16 01:24:28;;;;;;;99.88;44.58;;;;;;;1.15;100.00;95848.28;1025925;28;20022;-69
2020/12/16 01:24:58;;;;;;;102.43;44.78;;;;;;;1.16;100.00;95849.09;1022675;28;20019;-71
2020/12/16 01:25:29;;;;;;;108.78;45.13;;;;;;;1.14;100.00;95851.88;1030146;28;20007;-72
2020/12/16 01:25:59;;;;;;;100.70;44.00;;;;;;;1.07;100.00;95840.72;1030128;28;20022;-70
2020/12/16 01:26:46;;;;;;;95.22;43.60;;;;;;;1.11;100.00;95849.69;1026222;28;20083;-71
2020/12/16 01:27:16;;;;;;;86.66;40.38;;;;;;;1.12;100.00;95848.69;1025817;28;20052;-70
2020/12/16 01:27:59;;;;;;;100.35;44.00;;;;;;;1.08;100.00;95836.38;1025822;28;20027;-72
2020/12/16 01:28:29;;;;;;;95.20;42.40;;;;;;;1.06;100.00;95833.19;1025992;28;20031;-71
2020/12/16 01:29:00;;;;;;;102.95;43.78;;;;;;;1.16;100.00;95851.66;1030408;28;20026;-70
2020/12/16 01:29:30;;;;;;;109.47;47.67;;;;;;;1.11;100.00;95841.16;1031779;28;20034;-71
2020/12/16 01:30:01;;;;;;;106.57;45.22;;;;;;;1.15;100.00;95852.66;1026691;28;20034;-71
2020/12/16 01:30:32;;;;;;;119.78;46.66;;;;;;;1.14;100.00;95851.06;1030450;28;20079;-70
2020/12/16 01:31:03;;;;;;;100.85;43.58;;;;;;;1.05;100.00;95832.41;1026171;28;20041;-74
2020/12/16 01:31:40;;;;;;;93.60;42.26;;;;;;;1.04;100.00;95838.56;1026017;28;20034;-70
2020/12/16 01:32:14;;;;;;;99.60;44.78;;;;;;;1.08;100.00;95832.00;1030425;28;20026;-71
2020/12/16 01:32:44;;;;;;;123.46;47.98;;;;;;;1.16;100.00;95844.69;1027491;28;20102;-73
2020/12/16 01:33:15;;;;;;;103.30;45.78;;;;;;;1.15;100.00;95843.13;1028094;28;20384;-71
2020/12/16 01:33:45;;;;;;;106.15;45.58;;;;;;;1.17;100.00;95841.16;1030700;28;20529;-70
2020/12/16 01:34:22;;;;;;;111.80;46.65;;;;;;;1.11;100.00;95830.81;1034556;28;20022;-70
2020/12/16 01:34:53;;;;;;;128.44;47.82;;;;;;;1.06;100.00;95822.84;1034375;28;20030;-70
2020/12/16 01:35:24;;;;;;;121.26;46.18;;;;;;;1.13;100.00;95834.75;1026259;28;20023;-70
2020/12/16 01:35:54;;;;;;;123.95;46.10;;;;;;;1.17;100.00;95846.31;1026247;28;20030;-70
2020/12/16 01:36:25;;;;;;;146.00;51.10;;;;;;;1.19;100.00;95835.75;1027025;28;20027;-69
2020/12/16 01:36:55;;;;;;;159.73;52.47;;;;;;;1.17;100.00;95835.97;1030489;28;20034;-71
2020/12/16 01:37:26;;;;;;;163.05;51.00;;;;;;;1.17;100.00;95841.16;1034471;28;20026;-70
2020/12/16 01:37:56;;;;;;;138.07;48.50;;;;;;;1.17;100.00;95841.16;1032153;28;20034;-71
2020/12/16 01:38:27;;;;;;;174.68;52.35;;;;;;;1.16;100.00;95834.38;1038471;28;20021;-71
2020/12/16 01:38:57;;;;;;;201.50;52.60;;;;;;;1.17;100.00;95838.56;1030171;28;20030;-72
2020/12/16 01:39:28;;;;;;;206.00;54.63;;;;;;;1.11;100.00;95829.03;1030027;28;20044;-72
2020/12/16 01:39:58;;;;;;;264.52;54.17;;;;;;;1.08;100.00;95826.84;1030004;28;20026;-71
2020/12/16 01:40:29;;;;;;;203.25;54.25;;;;;;;1.12;100.00;95840.94;1030347;28;20038;-70
2020/12/16 01:41:08;;;;;;;246.27;53.88;;;;;;;1.14;100.00;95838.13;1034157;28;20445;-72
2020/12/16 01:41:42;;;;;;;231.52;53.20;;;;;;;1.14;100.00;95838.97;1033480;28;20475;-69
2020/12/16 01:42:14;;;;;;;230.48;56.10;;;;;;;1.13;100.00;95833.97;1036134;28;20022;-71
2020/12/16 01:42:44;;;;;;;206.82;52.94;;;;;;;1.05;100.00;95824.66;1036236;28;20462;-72
2020/12/16 01:43:15;;;;;;;183.10;50.20;;;;;;;1.13;100.00;95837.34;1030811;28;20022;-72
2020/12/16 01:43:45;;;;;;;221.70;54.17;;;;;;;1.04;100.00;95824.84;1029995;28;20072;-71
2020/12/16 01:44:20;;;;;;;224.80;55.38;;;;;;;1.08;100.00;95829.41;1026332;28;20601;-71
2020/12/16 01:44:50;;;;;;;230.60;51.83;;;;;;;1.10;100.00;95831.78;1026032;28;20019;-72
2020/12/16 01:45:22;;;;;;;268.17;58.83;;;;;;;1.05;100.00;95831.59;1029855;28;20411;-70
2020/12/16 01:45:52;;;;;;;242.66;54.78;;;;;;;1.07;100.00;95829.59;1026279;28;20031;-69
2020/12/16 01:46:23;;;;;;;193.55;51.58;;;;;;;1.06;100.00;95823.66;1026448;28;20656;-70
2020/12/16 01:46:55;;;;;;;212.05;55.97;;;;;;;1.10;100.00;95829.19;1026816;28;20062;-72
2020/12/16 01:47:26;;;;;;;203.44;56.26;;;;;;;1.09;100.00;95832.78;1030472;28;20029;-70
2020/12/16 01:47:56;;;;;;;219.38;54.25;;;;;;;1.09;100.00;95832.78;1030290;28;20022;-70
2020/12/16 01:48:27;;;;;;;231.75;54.55;;;;;;;1.08;100.00;95837.16;1030263;28;20026;-69
2020/12/16 01:48:57;;;;;;;182.48;50.53;;;;;;;1.09;100.00;95832.78;1034322;28;20014;-70
2020/12/16 01:49:28;;;;;;;185.05;54.40;;;;;;;1.08;100.00;95834.59;1034336;28;20126;-69
2020/12/16 01:49:58;;;;;;;201.80;55.38;;;;;;;1.06;100.00;95828.81;1033989;28;20447;-69
2020/12/16 01:50:29;;;;;;;201.80;55.38;;;;;;;1.07;100.00;95830.41;1034501;28;20025;-70
2020/12/16 01:50:59;;;;;;;170.10;52.93;;;;;;;1.08;100.00;95834.59;1034291;28;20021;-72
2020/12/16 01:51:30;;;;;;;205.17;55.17;;;;;;;1.00;100.00;95818.47;1029420;28;20018;-69
2020/12/16 01:52:05;;;;;;;199.70;53.63;;;;;;;1.06;100.00;95833.97;1026126;28;20716;-68
2020/12/16 01:52:36;;;;;;;192.27;55.28;;;;;;;0.99;100.00;95822.88;1027016;28;20027;-71
2020/12/16 01:53:06;;;;;;;173.10;49.70;;;;;;;1.03;100.00;95818.88;1030325;28;20018;-69
2020/12/16 01:53:37;;;;;;;184.07;52.73;;;;;;;1.07;100.00;95827.03;1025845;28;20011;-69
2020/12/16 01:54:07;;;;;;;163.00;50.15;;;;;;;1.06;100.00;95823.66;1030249;28;20023;-70
2020/12/16 01:54:38;;;;;;;176.20;51.67;;;;;;;1.03;100.00;95821.47;1034266;28;20029;-70
2020/12/16 01:55:10;;;;;;;136.85;48.72;;;;;;;1.02;100.00;95821.66;1030276;28;20010;-71
2020/12/16 01:55:40;;;;;;;151.63;50.83;;;;;;;1.07;100.00;95830.41;1029801;28;20049;-70
2020/12/16 01:56:11;;;;;;;143.80;49.22;;;;;;;0.92;100.00;95801.41;1030456;28;20026;-69
2020/12/16 01:56:42;;;;;;;171.10;52.83;;;;;;;1.03;100.00;95826.63;1026081;28;20015;-70
2020/12/16 01:57:13;;;;;;;137.77;49.80;;;;;;;1.06;100.00;95828.03;1026374;28;20018;-69
2020/12/16 01:57:46;;;;;;;130.73;49.10;;;;;;;1.07;100.00;95834.78;1025983;28;20655;-72
2020/12/16 01:58:17;;;;;;;142.54;49.06;;;;;;;0.99;100.00;95816.91;1026142;28;20011;-69
2020/12/16 01:58:48;;;;;;;139.67;50.10;;;;;;;0.96;100.00;95818.09;1022230;28;20027;-71
2020/12/16 01:59:18;;;;;;;131.87;48.97;;;;;;;0.99;100.00;95822.88;1022104;29;20066;-70
2020/12/16 01:59:49;;;;;;;122.57;47.20;;;;;;;1.05;100.00;95822.06;1018026;28;20048;-70
2020/12/16 02:00:20;;;;;;;113.32;46.22;;;;;;;1.02;100.00;95817.28;1035115;28;20025;-72
2020/12/16 02:00:51;;;;;;;152.67;50.77;;;;;;;1.07;100.00;95827.81;1026268;28;20080;-70
2020/12/16 02:01:22;;;;;;;132.74;47.48;;;;;;;1.01;100.00;95826.06;1025910;28;20528;-70
2020/12/16 02:01:53;;;;;;;123.75;47.90;;;;;;;1.07;100.00;95829.59;1023225;28;20011;-69
2020/12/16 02:02:24;;;;;;;114.18;45.47;;;;;;;1.09;100.00;95830.22;1018259;28;20019;-73
2020/12/16 02:02:54;;;;;;;124.22;47.33;;;;;;;1.02;100.00;95819.09;1022347;29;20028;-71
2020/12/16 02:03:25;;;;;;;107.68;44.25;;;;;;;1.02;100.00;95817.28;1022472;28;20022;-69
2020/12/16 02:03:55;;;;;;;119.05;46.83;;;;;;;0.99;100.00;95812.53;1026002;28;20023;-73
2020/12/16 02:04:25;;;;;;;121.18;47.65;;;;;;;1.08;100.00;95828.63;1030023;28;20492;-72
2020/12/16 02:04:56;;;;;;;120.75;47.78;;;;;;;1.01;100.00;95812.34;1022313;29;20019;-73
2020/12/16 02:05:26;;;;;;;114.27;45.03;;;;;;;1.06;100.00;95821.06;1016912;28;20127;-72
2020/12/16 02:05:57;;;;;;;103.72;42.67;;;;;;;1.09;100.00;95831.00;1022143;29;20027;-71
2020/12/16 02:06:27;;;;;;;121.93;45.85;;;;;;;1.08;100.00;95826.84;1022238;29;20081;-71
2020/12/16 02:06:58;;;;;;;116.78;45.33;;;;;;;1.02;100.00;95817.28;1020857;28;20031;-73
2020/12/16 02:07:29;;;;;;;112.88;45.72;;;;;;;1.10;100.00;95827.41;1047258;28;20020;-72
2020/12/16 02:07:59;;;;;;;110.35;44.88;;;;;;;1.10;100.00;95827.41;1029993;28;20050;-70
2020/12/16 02:08:30;;;;;;;98.97;42.80;;;;;;;1.11;100.00;95829.03;1029975;28;20021;-70
2020/12/16 02:09:04;;;;;;;103.70;43.65;;;;;;;1.04;100.00;95817.91;1030293;28;20515;-71
2020/12/16 02:09:45;;;;;;;100.90;43.24;;;;;;;1.10;100.00;95822.25;1030224;28;20458;-70
2020/12/16 02:10:15;;;;;;;100.04;41.94;;;;;;;1.13;100.00;95827.00;1029823;28;20030;-71
2020/12/16 02:10:46;;;;;;;98.95;42.80;;;;;;;1.07;100.00;95820.06;1028122;28;20027;-69
2020/12/16 02:11:17;;;;;;;90.96;40.34;;;;;;;1.13;100.00;95829.59;1046927;28;20390;-69
2020/12/16 02:11:48;;;;;;;94.30;41.95;;;;;;;1.09;100.00;95825.84;1046975;28;20032;-70
2020/12/16 02:12:18;;;;;;;91.60;40.83;;;;;;;1.15;100.00;95829.41;1051063;28;20039;-69
2020/12/16 02:12:48;;;;;;;90.75;40.30;;;;;;;1.05;100.00;95808.34;1050589;28;20769;-70
2020/12/16 02:13:19;;;;;;;95.88;41.63;;;;;;;1.10;100.00;95809.31;1034202;28;20049;-70
2020/12/16 02:13:49;;;;;;;94.85;41.95;;;;;;;1.18;100.00;95821.25;1030042;28;20031;-72
2020/12/16 02:14:20;;;;;;;97.18;42.28;;;;;;;1.20;100.00;95823.63;1029786;28;20014;-69
2020/12/16 02:14:51;;;;;;;100.25;41.92;;;;;;;1.13;100.00;95814.09;1030355;28;20026;-71
2020/12/16 02:15:21;;;;;;;110.13;45.65;;;;;;;1.14;100.00;95813.13;1030079;28;20105;-70
2020/12/16 02:15:52;;;;;;;85.00;39.13;;;;;;;1.22;100.00;95819.84;1034339;28;20014;-71
2020/12/16 02:16:22;;;;;;;97.13;41.65;;;;;;;1.22;100.00;95812.09;1034033;28;20079;-72
2020/12/16 02:16:53;;;;;;;83.57;40.35;;;;;;;1.14;100.00;95805.38;1030296;28;20767;-70
2020/12/16 02:17:23;;;;;;;93.60;39.85;;;;;;;1.18;100.00;95811.72;1037838;28;20022;-70
2020/12/16 02:17:54;;;;;;;96.72;40.47;;;;;;;1.26;100.00;95817.66;1034167;28;20502;-69
2020/12/16 02:18:24;;;;;;;102.00;43.55;;;;;;;1.17;100.00;95812.72;1022087;29;20022;-72
2020/12/16 02:18:55;;;;;;;93.72;41.22;;;;;;;1.18;100.00;95805.75;1025979;28;20019;-73
2020/12/16 02:19:25;;;;;;;100.03;42.23;;;;;;;1.26;100.00;95812.50;1047141;28;20047;-72
2020/12/16 02:20:03;;;;;;;84.38;40.33;;;;;;;1.29;100.00;95817.25;1026138;28;20541;-71
2020/12/16 02:20:34;;;;;;;79.32;37.08;;;;;;;1.26;100.00;95818.44;1046792;28;20031;-70
2020/12/16 02:21:04;;;;;;;84.55;39.10;;;;;;;1.21;100.00;95809.69;1047169;28;20055;-70
2020/12/16 02:21:35;;;;;;;95.45;40.90;;;;;;;1.28;100.00;95819.06;1054786;28;20515;-71
2020/12/16 02:22:05;;;;;;;98.18;40.95;;;;;;;1.26;100.00;95817.66;1046900;28;20101;-74